Time;durP1;ratioP1;P1;durP2;ratioP2;P2;SDS_P1;SDS_P2;PMS_P1;PMS_P2;Temp;Humidity;BMP_temperature;BMP_pressure;BME280_temperature;BME280_humidity;BME280_pressure;Samples;Min_cycle;Max_cycle;Signal;HPM_P1;HPM_P2
2022/01/08 00:01:38;;;;;;;1.50;1.40;;;1.90;99.90;;;;;;5030483;28;20276;-78
2022/01/08 00:04:04;;;;;;;6.78;2.55;;;1.80;99.90;;;;;;5030588;28;20276;-78
2022/01/08 00:06:30;;;;;;;2.00;1.27;;;1.80;99.90;;;;;;5049293;28;20270;-78
2022/01/08 00:08:56;;;;;;;6.97;3.30;;;1.90;99.90;;;;;;5031461;28;21116;-78
2022/01/08 00:11:25;;;;;;;2.40;1.97;;;1.80;99.90;;;;;;4999299;28;20192;-78
2022/01/08 00:13:51;;;;;;;2.40;1.55;;;1.70;99.90;;;;;;5032929;28;20524;-76
2022/01/08 00:16:17;;;;;;;2.60;1.90;;;1.70;99.90;;;;;;5048488;28;20262;-78
2022/01/08 00:18:43;;;;;;;1.77;1.23;;;1.70;99.90;;;;;;5050270;28;20222;-77
2022/01/08 00:21:08;;;;;;;4.17;2.20;;;1.70;99.90;;;;;;5018896;28;20220;-78
2022/01/08 00:23:34;;;;;;;11.37;3.80;;;1.70;99.90;;;;;;5052182;28;20203;-78
2022/01/08 00:26:00;;;;;;;5.00;2.10;;;1.70;99.90;;;;;;5052113;28;20185;-78
2022/01/08 00:28:26;;;;;;;2.53;1.20;;;1.80;99.90;;;;;;5033900;28;20186;-78
2022/01/08 00:30:52;;;;;;;1.58;1.20;;;1.80;99.90;;;;;;5034433;28;20196;-79
2022/01/08 00:33:19;;;;;;;1.30;1.20;;;1.80;99.90;;;;;;5052607;28;20228;-79
2022/01/08 00:35:44;;;;;;;2.13;1.77;;;1.80;99.90;;;;;;5034378;28;20452;-78
2022/01/08 00:38:10;;;;;;;4.47;2.17;;;1.80;99.90;;;;;;5052460;28;20182;-77
2022/01/08 00:40:36;;;;;;;6.70;1.60;;;1.80;99.90;;;;;;5052257;28;20471;-77
2022/01/08 00:43:02;;;;;;;2.37;1.53;;;1.90;99.90;;;;;;5034707;28;20203;-77
2022/01/08 00:45:27;;;;;;;1.87;1.67;;;1.90;99.90;;;;;;5034752;28;20189;-78
2022/01/08 00:47:53;;;;;;;2.87;1.27;;;2.00;99.90;;;;;;5033973;28;20842;-78
2022/01/08 00:50:19;;;;;;;1.47;1.37;;;2.00;99.90;;;;;;5034886;28;20562;-80
2022/01/08 00:52:45;;;;;;;4.03;1.50;;;2.00;99.90;;;;;;5017877;28;20634;-79
2022/01/08 00:55:11;;;;;;;1.57;0.97;;;2.10;99.90;;;;;;5034164;28;20178;-79
2022/01/08 00:57:37;;;;;;;1.70;1.50;;;2.10;99.90;;;;;;5052111;28;20830;-79
2022/01/08 01:00:09;;;;;;;6.97;1.40;;;2.20;99.90;;;;;;5051645;28;20392;-78
2022/01/08 01:02:36;;;;;;;3.85;1.80;;;2.20;99.90;;;;;;5051615;28;20737;-78
2022/01/08 01:05:03;;;;;;;2.13;1.95;;;2.20;99.90;;;;;;5034025;28;20226;-77
2022/01/08 01:07:29;;;;;;;3.45;1.95;;;2.30;99.90;;;;;;5051633;28;20182;-77
2022/01/08 01:09:55;;;;;;;1.40;1.30;;;2.20;99.90;;;;;;5034818;28;20189;-77
2022/01/08 01:12:20;;;;;;;2.60;1.17;;;2.40;99.90;;;;;;5019387;28;20689;-78
2022/01/08 01:14:46;;;;;;;5.70;2.33;;;2.30;99.90;;;;;;5035578;28;20552;-78
2022/01/08 01:17:12;;;;;;;1.33;1.23;;;2.20;99.90;;;;;;5035202;28;20273;-78
2022/01/08 01:19:37;;;;;;;1.70;1.50;;;2.20;99.90;;;;;;5035326;28;20190;-78
2022/01/08 01:22:04;;;;;;;1.90;1.73;;;2.30;99.90;;;;;;5002103;28;20191;-78
2022/01/08 01:24:31;;;;;;;1.85;1.75;;;2.30;99.90;;;;;;5051959;28;20195;-78
2022/01/08 01:48:20;;;;;;;2.15;1.80;;;2.40;99.90;;;;;;5053530;28;20183;-78
2022/01/08 01:50:45;;;;;;;1.95;1.85;;;2.30;99.90;;;;;;5018716;28;20215;-78
2022/01/08 01:53:11;;;;;;;2.27;1.97;;;2.20;99.90;;;;;;5034121;28;20242;-78
2022/01/08 01:55:37;;;;;;;3.00;2.50;;;2.10;99.90;;;;;;5052538;28;20200;-78
2022/01/08 01:58:06;;;;;;;4.43;2.10;;;2.10;99.90;;;;;;5051954;28;20200;-77
2022/01/08 02:00:32;;;;;;;4.93;2.25;;;2.10;99.90;;;;;;5051517;28;20191;-78
2022/01/08 02:02:59;;;;;;;2.25;2.05;;;2.10;99.90;;;;;;5034483;28;20224;-79
2022/01/08 02:05:25;;;;;;;1.92;1.75;;;2.10;99.90;;;;;;5017790;28;20189;-78
2022/01/08 02:07:50;;;;;;;2.70;2.50;;;2.10;99.90;;;;;;5053085;28;20332;-79
2022/01/08 02:10:16;;;;;;;2.97;1.90;;;2.10;99.90;;;;;;5035069;28;20899;-79
2022/01/08 02:12:42;;;;;;;5.47;3.00;;;2.20;99.90;;;;;;5052020;28;20208;-77
2022/01/08 02:15:08;;;;;;;2.50;2.30;;;2.20;99.90;;;;;;5053422;28;20330;-79
2022/01/08 02:17:33;;;;;;;2.45;2.25;;;2.30;99.90;;;;;;5053020;28;20198;-79
2022/01/08 02:19:59;;;;;;;3.30;2.27;;;2.30;99.90;;;;;;5034695;28;20205;-78
2022/01/08 02:22:24;;;;;;;1.97;1.70;;;2.30;99.90;;;;;;5053318;28;20188;-77
2022/01/08 02:24:50;;;;;;;2.53;2.43;;;2.30;99.90;;;;;;5018297;28;20188;-78
2022/01/08 02:27:17;;;;;;;3.30;2.70;;;2.40;99.90;;;;;;5052047;28;20189;-78
2022/01/08 02:29:43;;;;;;;4.15;2.25;;;2.40;99.90;;;;;;5052177;28;20239;-78
2022/01/08 02:32:16;;;;;;;2.70;2.50;;;2.40;99.90;;;;;;5034720;28;20191;-77
2022/01/08 02:34:44;;;;;;;2.70;2.50;;;2.30;99.90;;;;;;5020020;28;20218;-79
2022/01/08 02:37:10;;;;;;;3.73;2.70;;;2.30;99.90;;;;;;5035974;28;20267;-78
2022/01/08 02:39:41;;;;;;;4.30;2.85;;;2.40;99.90;;;;;;5053457;28;20408;-78
2022/01/08 02:42:08;;;;;;;2.60;2.40;;;2.40;99.90;;;;;;5035973;28;20189;-78
2022/01/08 02:44:34;;;;;;;4.80;2.75;;;2.40;99.90;;;;;;5050784;28;20194;-78
2022/01/08 02:47:01;;;;;;;4.63;2.30;;;2.40;99.90;;;;;;5032343;28;20569;-78
2022/01/08 02:49:27;;;;;;;2.93;2.63;;;2.40;99.90;;;;;;5050243;28;20179;-76
2022/01/08 02:51:53;;;;;;;2.57;2.40;;;2.40;99.90;;;;;;5050590;28;20444;-77
2022/01/08 02:54:19;;;;;;;2.17;2.08;;;2.40;99.90;;;;;;5050230;28;20467;-78
2022/01/08 02:56:47;;;;;;;4.05;2.50;;;2.50;99.90;;;;;;5050461;28;20209;-78
2022/01/08 02:59:14;;;;;;;2.45;2.35;;;2.40;99.90;;;;;;5050452;28;20181;-77
2022/01/08 03:01:40;;;;;;;2.83;2.58;;;2.50;99.90;;;;;;5050266;28;20594;-77
2022/01/08 03:04:07;;;;;;;2.87;2.10;;;2.50;99.90;;;;;;5050196;28;20207;-77
2022/01/08 03:06:33;;;;;;;3.38;2.30;;;2.50;99.90;;;;;;5032867;28;20193;-78
2022/01/08 03:08:59;;;;;;;3.72;2.47;;;2.40;99.90;;;;;;5050375;28;20585;-77
2022/01/08 03:11:24;;;;;;;2.90;2.30;;;2.50;99.90;;;;;;5050437;28;20179;-77
2022/01/08 03:13:50;;;;;;;3.53;2.80;;;2.40;99.90;;;;;;5050178;28;20609;-77
2022/01/08 03:16:17;;;;;;;2.73;2.50;;;2.40;99.90;;;;;;5032283;28;20412;-78
2022/01/08 03:18:44;;;;;;;4.15;2.83;;;2.40;99.90;;;;;;5050256;28;20427;-78
2022/01/08 03:21:15;;;;;;;3.00;2.38;;;2.40;99.90;;;;;;5050689;28;20181;-78
2022/01/08 03:23:52;;;;;;;2.92;2.65;;;2.40;99.90;;;;;;5033721;28;20226;-77
2022/01/08 03:26:20;;;;;;;2.93;2.17;;;2.50;99.90;;;;;;5050284;28;20630;-78
2022/01/08 03:28:47;;;;;;;5.20;2.72;;;2.50;99.90;;;;;;5032367;28;20423;-78
2022/01/08 03:31:14;;;;;;;2.03;1.85;;;2.50;99.90;;;;;;5032793;28;20187;-79
2022/01/08 03:33:41;;;;;;;2.55;2.20;;;2.50;99.90;;;;;;5032431;28;20333;-78
2022/01/08 03:36:07;;;;;;;2.25;2.10;;;2.50;99.90;;;;;;5050638;28;20178;-78
2022/01/08 03:38:34;;;;;;;3.00;2.20;;;2.60;99.90;;;;;;5032715;28;20184;-77
2022/01/08 03:41:00;;;;;;;1.73;1.60;;;2.60;99.90;;;;;;5050687;28;20183;-79
2022/01/08 03:43:26;;;;;;;2.20;1.73;;;2.60;99.90;;;;;;5053047;28;20213;-79
2022/01/08 03:45:52;;;;;;;2.67;1.80;;;2.60;99.90;;;;;;5017839;28;20247;-79
2022/01/08 03:48:26;;;;;;;2.30;1.83;;;2.60;99.90;;;;;;5051484;28;20205;-78
2022/01/08 03:50:52;;;;;;;2.15;1.40;;;2.70;99.90;;;;;;5034972;28;20178;-79
2022/01/08 03:53:18;;;;;;;1.60;1.50;;;2.70;99.90;;;;;;5051014;28;20223;-80
2022/01/08 03:55:43;;;;;;;1.77;1.57;;;2.80;99.90;;;;;;5032523;28;20473;-77
2022/01/08 03:58:09;;;;;;;1.57;1.43;;;2.70;99.90;;;;;;5049883;28;20416;-77
2022/01/08 04:00:35;;;;;;;1.40;1.30;;;2.80;99.90;;;;;;4999831;28;20264;-79
2022/01/08 04:03:01;;;;;;;1.40;1.30;;;2.80;99.90;;;;;;5017607;28;20292;-77
2022/01/08 04:05:27;;;;;;;2.00;1.90;;;2.80;99.90;;;;;;5033904;28;20707;-77
2022/01/08 04:07:52;;;;;;;1.67;1.57;;;2.80;99.90;;;;;;5051908;28;20185;-78
2022/01/08 04:10:18;;;;;;;1.30;1.23;;;2.80;99.90;;;;;;5051362;28;20224;-77
2022/01/08 04:12:48;;;;;;;20.57;9.07;;;2.80;99.90;;;;;;5031189;28;20217;-78
2022/01/08 04:15:48;;;;;;;3.50;1.30;;;2.90;99.90;;;;;;5051133;28;20256;-78
2022/01/08 04:18:07;;;;;;;1.17;1.08;;;2.90;99.90;;;;;;5047485;28;20210;-78
2022/01/08 04:20:37;;;;;;;3.22;1.25;;;2.80;99.90;;;;;;5033386;28;20566;-78
2022/01/08 04:23:03;;;;;;;3.47;1.30;;;2.90;99.90;;;;;;5033423;28;20689;-80
2022/01/08 04:25:28;;;;;;;0.70;0.70;;;2.90;99.90;;;;;;5032447;28;20205;-79
2022/01/08 04:27:54;;;;;;;1.30;0.90;;;3.00;99.90;;;;;;5015117;28;20191;-78
2022/01/08 04:30:20;;;;;;;1.07;0.97;;;3.00;99.90;;;;;;5049662;28;20231;-78
2022/01/08 04:32:46;;;;;;;1.00;0.63;;;3.10;99.90;;;;;;5050059;28;20218;-78
2022/01/08 04:35:11;;;;;;;0.70;0.68;;;3.10;99.90;;;;;;5031300;28;20271;-78
2022/01/08 04:37:37;;;;;;;3.60;0.50;;;3.20;99.90;;;;;;5050129;28;20326;-78
2022/01/08 04:40:03;;;;;;;1.03;0.70;;;3.40;99.90;;;;;;5051836;28;20189;-78
2022/01/08 04:42:29;;;;;;;1.17;0.60;;;3.50;99.90;;;;;;5050755;28;20185;-79
2022/01/08 04:44:55;;;;;;;0.57;0.50;;;3.50;99.90;;;;;;5050378;28;20186;-78
2022/01/08 04:47:20;;;;;;;1.60;0.57;;;3.50;99.90;;;;;;5050511;28;20193;-79
2022/01/08 04:49:46;;;;;;;0.80;0.60;;;3.50;99.90;;;;;;5049579;28;20194;-78
2022/01/08 04:52:12;;;;;;;1.33;0.50;;;3.50;99.90;;;;;;5049752;28;20210;-78
2022/01/08 04:54:37;;;;;;;0.60;0.40;;;3.60;99.90;;;;;;5031120;28;20206;-78
2022/01/08 04:57:03;;;;;;;0.50;0.37;;;3.60;99.90;;;;;;5049150;28;20270;-78
2022/01/08 04:59:29;;;;;;;1.43;0.47;;;3.60;99.90;;;;;;4999674;28;20186;-78
2022/01/08 05:01:54;;;;;;;0.50;0.30;;;3.60;99.90;;;;;;5050758;28;20474;-78
2022/01/08 05:04:21;;;;;;;0.60;0.50;;;3.50;99.90;;;;;;5033524;28;20212;-78
2022/01/08 05:06:46;;;;;;;1.63;0.40;;;3.40;99.90;;;;;;5054095;28;20721;-79
2022/01/08 05:09:12;;;;;;;0.60;0.40;;;3.30;99.90;;;;;;5018903;28;20434;-77
2022/01/08 05:11:37;;;;;;;0.60;0.40;;;3.30;99.90;;;;;;5036027;28;20185;-78
2022/01/08 05:14:04;;;;;;;0.90;0.50;;;3.20;99.90;;;;;;5035582;28;20713;-79
2022/01/08 05:16:30;;;;;;;0.60;0.40;;;3.20;99.90;;;;;;5053243;28;20207;-77
2022/01/08 05:18:56;;;;;;;0.90;0.40;;;3.00;99.90;;;;;;5054130;28;20182;-78
2022/01/08 05:23:47;;;;;;;0.77;0.30;;;3.10;99.90;;;;;;5035308;28;20231;-77
2022/01/08 05:26:13;;;;;;;0.50;0.40;;;2.90;99.90;;;;;;5018255;28;20269;-77
2022/01/08 05:28:38;;;;;;;1.23;0.40;;;2.80;99.90;;;;;;5034637;28;20227;-77
2022/01/08 05:31:04;;;;;;;2.07;0.30;;;2.90;99.90;;;;;;5052879;28;20195;-77
2022/01/08 05:33:30;;;;;;;0.60;0.40;;;2.90;99.90;;;;;;5034466;28;20225;-78
2022/01/08 05:35:56;;;;;;;0.70;0.60;;;2.80;99.90;;;;;;5053331;28;20198;-79
2022/01/08 05:38:21;;;;;;;0.60;0.40;;;3.00;99.90;;;;;;5053198;28;20970;-78
2022/01/08 05:40:48;;;;;;;1.23;0.40;;;2.80;99.90;;;;;;5034822;28;20190;-78
2022/01/08 05:43:13;;;;;;;2.05;0.40;;;2.80;99.90;;;;;;5035800;28;20342;-78
2022/01/08 05:45:39;;;;;;;0.70;0.40;;;2.80;99.90;;;;;;5054226;28;20769;-77
2022/01/08 05:48:05;;;;;;;0.60;0.40;;;2.90;99.90;;;;;;5054320;28;20187;-77
2022/01/08 05:50:31;;;;;;;1.55;0.30;;;2.90;99.90;;;;;;5003520;28;20194;-78
2022/01/08 05:52:57;;;;;;;1.97;0.40;;;2.90;99.90;;;;;;5054379;28;20240;-78
2022/01/08 05:55:22;;;;;;;0.47;0.30;;;2.90;99.90;;;;;;5043264;28;20193;-78
2022/01/08 05:57:48;;;;;;;0.60;0.30;;;2.90;99.90;;;;;;5039005;28;20189;-80
2022/01/08 06:00:14;;;;;;;1.33;0.50;;;2.90;99.90;;;;;;5058254;28;20710;-81
2022/01/08 06:02:40;;;;;;;0.80;0.40;;;2.90;99.90;;;;;;5058435;28;20215;-80
2022/01/08 06:05:07;;;;;;;0.57;0.37;;;2.90;99.90;;;;;;5060167;28;20205;-80
2022/01/08 06:07:33;;;;;;;0.50;0.40;;;2.70;99.90;;;;;;5037398;28;20195;-80
2022/01/08 06:09:59;;;;;;;1.38;0.45;;;2.70;99.90;;;;;;5036449;28;20482;-79
2022/01/08 06:12:24;;;;;;;0.50;0.30;;;2.70;99.90;;;;;;5053642;28;20187;-77
2022/01/08 06:14:50;;;;;;;0.50;0.40;;;2.60;99.90;;;;;;5032373;28;20206;-74
2022/01/08 06:17:15;;;;;;;0.50;0.30;;;2.60;99.90;;;;;;5050313;28;20195;-74
2022/01/08 06:19:41;;;;;;;0.60;0.40;;;2.50;99.90;;;;;;5032029;28;20185;-74
2022/01/08 06:22:07;;;;;;;0.50;0.30;;;2.50;99.90;;;;;;5050001;28;20269;-74
2022/01/08 06:24:33;;;;;;;0.50;0.30;;;2.40;99.90;;;;;;5049490;28;20522;-74
2022/01/08 06:26:58;;;;;;;0.70;0.40;;;2.40;99.90;;;;;;5049668;28;20185;-74
2022/01/08 06:29:24;;;;;;;0.50;0.50;;;2.40;99.90;;;;;;5049384;28;20791;-74
2022/01/08 06:31:50;;;;;;;0.70;0.37;;;2.30;99.90;;;;;;5031752;28;20195;-73
2022/01/08 06:34:16;;;;;;;0.50;0.40;;;2.20;99.90;;;;;;5031122;28;20549;-73
2022/01/08 06:36:42;;;;;;;0.50;0.40;;;2.20;99.90;;;;;;5049360;28;20251;-74
2022/01/08 06:39:07;;;;;;;0.60;0.40;;;2.20;99.90;;;;;;5049460;28;20772;-73
2022/01/08 06:41:33;;;;;;;0.50;0.30;;;2.10;99.90;;;;;;5049269;28;20615;-74
2022/01/08 06:43:59;;;;;;;0.50;0.37;;;2.10;99.90;;;;;;5049392;28;20287;-75
2022/01/08 06:46:25;;;;;;;4.00;0.60;;;2.10;99.90;;;;;;5049207;28;20208;-75
2022/01/08 06:48:50;;;;;;;0.60;0.55;;;2.00;99.90;;;;;;5049242;28;20193;-75
2022/01/08 06:51:16;;;;;;;0.50;0.40;;;1.80;99.90;;;;;;5031222;28;20196;-75
2022/01/08 06:53:42;;;;;;;0.50;0.40;;;1.70;99.90;;;;;;5048964;28;20273;-76
2022/01/08 06:56:07;;;;;;;0.50;0.50;;;1.60;99.90;;;;;;5049147;28;20184;-76
2022/01/08 06:58:34;;;;;;;0.50;0.40;;;1.70;99.90;;;;;;5048861;28;20269;-76
2022/01/08 07:00:59;;;;;;;1.13;0.80;;;1.60;99.90;;;;;;5048786;28;20176;-76
2022/01/08 07:03:25;;;;;;;0.70;0.50;;;1.60;99.90;;;;;;5048893;28;20746;-76
2022/01/08 07:05:51;;;;;;;1.03;0.57;;;1.60;99.90;;;;;;5048861;28;20267;-76
2022/01/08 07:08:16;;;;;;;1.00;0.60;;;1.60;99.90;;;;;;5048958;28;20193;-76
2022/01/08 07:10:42;;;;;;;0.50;0.40;;;1.50;99.90;;;;;;5048830;28;20611;-76
2022/01/08 07:13:08;;;;;;;0.60;0.50;;;1.50;99.90;;;;;;5031440;28;20229;-75
2022/01/08 07:15:34;;;;;;;0.60;0.60;;;1.60;99.90;;;;;;5048903;28;20280;-76
2022/01/08 07:18:00;;;;;;;1.10;0.50;;;1.60;99.90;;;;;;5048712;28;20720;-76
2022/01/08 07:20:25;;;;;;;1.67;1.47;;;1.60;99.90;;;;;;5048875;28;20629;-77
2022/01/08 07:22:51;;;;;;;1.07;0.70;;;1.60;99.90;;;;;;5048876;28;20204;-77
2022/01/08 07:25:17;;;;;;;0.70;0.60;;;1.50;99.90;;;;;;5030815;28;20657;-76
2022/01/08 07:27:43;;;;;;;0.70;0.70;;;1.60;99.90;;;;;;5048080;28;20653;-76
2022/01/08 07:30:10;;;;;;;3.92;0.82;;;1.60;99.90;;;;;;5030628;28;20722;-75
2022/01/08 07:32:42;;;;;;;1.40;0.68;;;1.50;99.90;;;;;;5048788;28;20235;-76
2022/01/08 07:35:09;;;;;;;4.00;0.90;;;1.50;99.90;;;;;;5048546;28;20296;-77
2022/01/08 07:37:34;;;;;;;1.13;0.70;;;1.50;99.90;;;;;;5048701;28;20187;-76
2022/01/08 07:40:00;;;;;;;1.13;0.90;;;1.50;99.90;;;;;;5048256;28;20661;-76
2022/01/08 07:42:26;;;;;;;0.67;0.67;;;1.50;99.90;;;;;;5048368;28;20187;-76
2022/01/08 07:44:51;;;;;;;3.20;0.73;;;1.50;99.90;;;;;;5048203;28;20269;-76
2022/01/08 07:47:17;;;;;;;1.97;0.70;;;1.50;99.90;;;;;;5030193;28;20585;-76
2022/01/08 07:49:43;;;;;;;1.27;1.03;;;1.60;99.90;;;;;;5048298;28;20357;-76
2022/01/08 07:52:09;;;;;;;0.98;0.70;;;1.50;99.90;;;;;;5013844;28;20187;-76
2022/01/08 07:54:35;;;;;;;2.00;0.80;;;1.50;99.90;;;;;;5030390;28;20578;-76
2022/01/08 07:57:00;;;;;;;0.80;0.80;;;1.50;99.90;;;;;;5048326;28;20186;-76
2022/01/08 07:59:26;;;;;;;2.50;1.10;;;1.60;99.90;;;;;;5048170;28;20440;-76
2022/01/08 08:01:52;;;;;;;0.83;0.83;;;1.70;99.90;;;;;;5013889;28;20188;-77
2022/01/08 08:04:18;;;;;;;1.30;1.03;;;1.60;99.90;;;;;;5048255;28;20525;-77
2022/01/08 08:06:47;;;;;;;0.80;0.80;;;1.60;99.90;;;;;;5030147;28;20229;-76
2022/01/08 08:09:14;;;;;;;7.43;0.95;;;1.60;99.90;;;;;;5048126;28;20574;-76
2022/01/08 08:11:40;;;;;;;3.35;1.33;;;1.60;99.90;;;;;;5013855;28;20356;-76
2022/01/08 08:14:06;;;;;;;1.55;1.40;;;1.60;99.90;;;;;;5013503;28;20225;-76
2022/01/08 08:16:32;;;;;;;2.30;1.50;;;1.60;99.90;;;;;;5048118;28;20202;-76
2022/01/08 08:18:57;;;;;;;1.67;1.23;;;1.70;99.90;;;;;;5047961;28;20675;-75
2022/01/08 08:21:23;;;;;;;3.83;1.80;;;1.70;99.90;;;;;;5048129;28;20605;-75
2022/01/08 08:23:49;;;;;;;1.53;1.00;;;1.80;99.90;;;;;;5048048;28;20279;-76
2022/01/08 08:26:14;;;;;;;2.23;1.50;;;1.80;99.90;;;;;;5048101;28;20181;-76
2022/01/08 08:28:40;;;;;;;3.33;1.27;;;1.80;99.90;;;;;;5028667;28;20181;-75
2022/01/08 08:31:06;;;;;;;0.90;0.90;;;1.80;99.90;;;;;;5028821;28;20188;-75
2022/01/08 08:33:31;;;;;;;1.70;1.13;;;1.80;99.90;;;;;;5027992;28;20270;-77
2022/01/08 08:35:57;;;;;;;2.67;1.23;;;1.80;99.90;;;;;;5046454;28;20551;-76
2022/01/08 08:38:23;;;;;;;1.97;1.10;;;1.80;99.90;;;;;;5046600;28;20207;-76
2022/01/08 08:40:51;;;;;;;1.50;1.40;;;1.80;99.90;;;;;;5049536;28;20282;-75
2022/01/08 08:43:17;;;;;;;4.88;2.70;;;1.70;99.90;;;;;;5050588;28;20278;-77
2022/01/08 08:45:42;;;;;;;2.08;1.85;;;1.80;99.90;;;;;;5031901;28;20654;-75
2022/01/08 08:48:08;;;;;;;1.43;1.27;;;1.70;99.90;;;;;;5050288;28;20195;-75
2022/01/08 08:50:34;;;;;;;2.50;1.20;;;1.70;99.90;;;;;;5050440;28;20224;-77
2022/01/08 08:52:59;;;;;;;1.50;1.07;;;1.70;99.90;;;;;;5032256;28;20247;-76
2022/01/08 08:55:25;;;;;;;1.40;1.03;;;1.70;99.90;;;;;;5050237;28;20726;-76
2022/01/08 08:57:51;;;;;;;2.83;1.20;;;1.70;99.90;;;;;;5015674;28;20188;-76
2022/01/08 09:00:17;;;;;;;2.50;1.40;;;1.70;99.90;;;;;;5032196;28;20614;-76
2022/01/08 09:02:43;;;;;;;1.60;1.50;;;1.70;99.90;;;;;;5050279;28;20608;-76
2022/01/08 09:05:08;;;;;;;2.23;1.60;;;1.80;99.90;;;;;;5015525;28;20514;-77
2022/01/08 09:07:34;;;;;;;1.67;1.47;;;1.80;99.90;;;;;;5050326;28;20272;-76
2022/01/08 09:10:04;;;;;;;2.83;1.57;;;1.90;99.90;;;;;;5050544;28;20427;-76
2022/01/08 09:12:30;;;;;;;4.05;1.40;;;1.90;99.90;;;;;;5050464;28;20530;-74
2022/01/08 09:14:56;;;;;;;1.67;1.58;;;2.00;99.90;;;;;;5033284;28;20180;-77
2022/01/08 09:17:24;;;;;;;3.27;1.70;;;1.90;99.90;;;;;;5050527;28;20172;-75
2022/01/08 09:19:50;;;;;;;1.50;1.40;;;1.90;99.90;;;;;;5050170;28;20422;-75
2022/01/08 09:22:16;;;;;;;3.13;1.63;;;1.90;99.90;;;;;;5049909;28;20192;-76
2022/01/08 09:24:44;;;;;;;2.60;1.20;;;1.90;99.90;;;;;;5049911;28;20813;-74
2022/01/08 09:27:10;;;;;;;2.45;1.52;;;1.90;99.90;;;;;;5049908;28;20452;-75
2022/01/08 09:29:36;;;;;;;2.23;1.10;;;1.90;99.90;;;;;;5031814;28;20217;-76
2022/01/08 09:32:07;;;;;;;2.90;1.55;;;2.00;99.90;;;;;;5049327;28;20188;-77
2022/01/08 09:34:34;;;;;;;1.38;1.27;;;2.00;99.90;;;;;;5015146;28;20785;-75
2022/01/08 09:36:59;;;;;;;3.45;1.45;;;2.10;99.90;;;;;;5049461;28;20181;-76
2022/01/08 09:39:25;;;;;;;5.77;2.33;;;2.10;99.90;;;;;;5031022;28;20542;-76
2022/01/08 09:41:52;;;;;;;2.33;1.67;;;2.10;99.90;;;;;;5049138;28;20600;-76
2022/01/08 09:44:17;;;;;;;2.75;1.75;;;2.10;99.90;;;;;;5048919;28;20920;-76
2022/01/08 09:46:43;;;;;;;1.40;1.30;;;2.10;99.90;;;;;;5049144;28;20290;-76
2022/01/08 09:49:09;;;;;;;2.07;1.57;;;2.10;99.90;;;;;;5049073;28;20194;-75
2022/01/08 09:51:35;;;;;;;4.03;1.60;;;2.10;99.90;;;;;;5048837;28;20541;-75
2022/01/08 09:54:02;;;;;;;3.15;1.83;;;2.20;99.90;;;;;;5030752;28;20520;-75
2022/01/08 09:56:31;;;;;;;2.60;1.63;;;2.20;99.90;;;;;;5030499;28;20196;-76
2022/01/08 09:58:57;;;;;;;1.65;1.52;;;2.20;99.90;;;;;;5049791;28;20238;-75
2022/01/08 10:01:30;;;;;;;3.05;1.15;;;2.20;99.90;;;;;;5048872;28;20188;-75
2022/01/08 10:04:00;;;;;;;1.95;1.30;;;2.20;99.90;;;;;;5049237;28;20221;-76
2022/01/08 10:06:31;;;;;;;1.48;1.20;;;2.20;99.90;;;;;;5048889;28;20236;-76
2022/01/08 10:08:57;;;;;;;1.30;1.20;;;2.20;99.90;;;;;;5030390;28;20307;-76
2022/01/08 10:11:25;;;;;;;3.30;1.48;;;2.30;99.90;;;;;;5048518;28;20249;-76
2022/01/08 10:14:02;;;;;;;2.60;1.10;;;2.30;99.90;;;;;;5048164;28;20735;-76
2022/01/08 10:19:23;;;;;;;1.85;1.17;;;2.30;99.90;;;;;;5033333;28;20575;-76
2022/01/08 10:21:51;;;;;;;2.00;1.30;;;2.30;99.90;;;;;;5048306;28;20181;-76
2022/01/08 10:24:29;;;;;;;1.40;1.25;;;2.30;99.90;;;;;;5013663;28;20272;-76
2022/01/08 10:27:03;;;;;;;11.63;1.30;;;2.20;99.90;;;;;;5048241;28;20192;-76
2022/01/08 10:29:28;;;;;;;2.28;1.00;;;2.30;99.90;;;;;;5048234;28;20204;-76
2022/01/08 10:31:56;;;;;;;2.53;1.13;;;2.30;99.90;;;;;;5030105;28;20658;-76
2022/01/08 10:34:28;;;;;;;2.38;1.23;;;2.30;99.90;;;;;;5047916;28;20307;-76
2022/01/08 10:37:00;;;;;;;3.00;1.13;;;2.50;99.90;;;;;;5048101;28;20620;-76
2022/01/08 10:39:38;;;;;;;3.63;1.30;;;2.50;99.90;;;;;;5048192;28;20176;-76
2022/01/08 10:42:16;;;;;;;1.17;0.90;;;2.40;99.90;;;;;;5029948;28;20185;-76
2022/01/08 10:44:44;;;;;;;4.50;1.05;;;2.30;99.90;;;;;;5012904;28;20651;-76
2022/01/08 10:47:16;;;;;;;1.38;1.27;;;2.30;99.90;;;;;;5048064;28;20203;-76
2022/01/08 10:49:45;;;;;;;1.38;1.27;;;2.30;99.90;;;;;;5047792;28;20252;-76
2022/01/08 10:52:19;;;;;;;1.00;0.95;;;2.30;99.90;;;;;;5047940;28;20185;-76
2022/01/08 10:54:56;;;;;;;5.85;1.10;;;2.40;99.90;;;;;;5047701;28;20689;-76
2022/01/08 10:57:31;;;;;;;4.18;1.02;;;2.30;99.90;;;;;;5047707;28;20182;-76
2022/01/08 10:59:56;;;;;;;0.95;0.80;;;2.30;99.90;;;;;;5047859;28;20188;-76
2022/01/08 11:02:26;;;;;;;2.70;1.03;;;2.30;99.90;;;;;;5012135;28;20193;-76
2022/01/08 11:04:53;;;;;;;2.67;1.15;;;2.30;99.90;;;;;;5047534;28;20221;-76
2022/01/08 11:07:31;;;;;;;2.42;0.88;;;2.30;99.90;;;;;;5047395;28;20184;-76
2022/01/08 11:10:07;;;;;;;5.70;1.70;;;2.30;99.90;;;;;;5047278;28;20203;-76
2022/01/08 11:12:38;;;;;;;2.88;0.88;;;2.40;99.90;;;;;;5047274;28;20937;-76
2022/01/08 11:17:40;;;;;;;1.00;0.50;;;2.40;99.90;;;;;;5047110;28;20177;-76
2022/01/08 11:20:14;;;;;;;5.22;1.58;;;2.50;99.90;;;;;;5047155;28;20235;-76
2022/01/08 11:22:50;;;;;;;3.20;0.88;;;2.70;99.90;;;;;;5047208;28;20188;-76
2022/01/08 11:25:18;;;;;;;4.43;0.70;;;3.00;99.90;;;;;;5030580;28;20268;-76
2022/01/08 11:28:01;;;;;;;1.42;0.70;;;5.00;99.90;;;;;;5047591;28;20655;-76
2022/01/08 11:30:36;;;;;;;3.65;1.02;;;5.80;99.90;;;;;;5028717;28;20198;-76
2022/01/08 11:33:09;;;;;;;5.53;2.28;;;6.30;98.60;;;;;;5047122;28;20229;-76
2022/01/08 11:35:37;;;;;;;2.33;0.93;;;5.80;98.60;;;;;;5013943;28;20648;-76
2022/01/08 11:38:08;;;;;;;2.70;1.10;;;4.90;97.70;;;;;;5047239;28;20472;-76
2022/01/08 11:40:37;;;;;;;4.60;1.30;;;4.70;99.90;;;;;;5047152;28;20771;-76
2022/01/08 11:43:05;;;;;;;3.33;1.40;;;4.30;99.90;;;;;;5047018;28;20440;-76
2022/01/08 11:45:50;;;;;;;4.40;1.30;;;4.00;99.90;;;;;;5029188;28;20946;-76
2022/01/08 11:48:18;;;;;;;2.70;1.27;;;3.80;99.90;;;;;;5029194;28;20437;-76
2022/01/08 11:50:55;;;;;;;3.85;1.38;;;3.70;99.90;;;;;;5047376;28;20290;-76
2022/01/08 11:53:22;;;;;;;4.40;1.83;;;3.40;99.90;;;;;;5047076;28;20209;-77
2022/01/08 11:55:50;;;;;;;2.35;0.90;;;3.50;99.90;;;;;;5046749;28;20456;-76
2022/01/08 11:58:27;;;;;;;4.10;1.23;;;3.50;99.90;;;;;;5029161;28;20266;-76
2022/01/08 12:01:05;;;;;;;3.40;1.00;;;3.60;99.90;;;;;;5047104;28;20439;-76
2022/01/08 12:03:32;;;;;;;2.60;1.67;;;3.50;99.90;;;;;;5047196;28;20325;-75
2022/01/08 12:06:20;;;;;;;1.52;1.30;;;3.70;99.90;;;;;;5047128;28;20431;-76
2022/01/08 12:09:29;;;;;;;2.25;1.05;;;3.90;99.90;;;;;;5047083;28;20186;-76
2022/01/08 12:12:04;;;;;;;5.90;3.00;;;4.10;99.90;;;;;;5047001;28;20193;-76
2022/01/08 12:14:44;;;;;;;2.00;0.93;;;4.40;99.90;;;;;;5050764;28;20471;-76
2022/01/08 12:17:17;;;;;;;2.03;1.70;;;4.20;99.90;;;;;;5051674;28;20902;-76
2022/01/08 12:19:53;;;;;;;4.40;1.50;;;4.00;99.90;;;;;;5033329;28;20472;-76
2022/01/08 12:22:19;;;;;;;2.33;1.88;;;3.90;99.90;;;;;;5051307;28;20658;-76
2022/01/08 12:24:49;;;;;;;2.90;1.30;;;3.90;99.90;;;;;;5032654;28;20213;-76
2022/01/08 12:27:33;;;;;;;3.35;1.85;;;3.70;99.90;;;;;;5033595;28;20190;-76
2022/01/08 12:30:21;;;;;;;1.40;1.30;;;3.70;99.90;;;;;;5050898;28;20657;-76
2022/01/08 12:32:50;;;;;;;7.57;4.43;;;3.80;99.90;;;;;;5034279;28;20672;-76
2022/01/08 12:35:20;;;;;;;10.48;6.35;;;4.00;99.90;;;;;;5051314;28;20441;-76
2022/01/08 12:37:59;;;;;;;2.92;2.40;;;4.20;99.90;;;;;;5033084;28;20682;-76
2022/01/08 12:40:41;;;;;;;2.63;1.50;;;4.20;99.90;;;;;;5051091;28;20266;-76
2022/01/08 12:43:33;;;;;;;2.40;1.40;;;4.10;99.90;;;;;;5050847;28;20212;-75
2022/01/08 12:46:20;;;;;;;2.38;1.17;;;4.10;99.90;;;;;;5050603;28;20733;-76
2022/01/08 12:49:18;;;;;;;2.35;1.33;;;4.10;99.90;;;;;;5050359;28;20185;-77
2022/01/08 12:51:50;;;;;;;3.90;2.00;;;3.90;99.90;;;;;;4979084;28;20556;-75
2022/01/08 12:54:18;;;;;;;3.33;1.90;;;3.90;99.90;;;;;;5050895;28;20971;-75
2022/01/08 12:56:50;;;;;;;4.13;1.58;;;4.10;99.90;;;;;;5016270;28;20195;-76
2022/01/08 12:59:16;;;;;;;2.58;1.10;;;4.20;99.90;;;;;;5050639;28;20177;-76
2022/01/08 13:01:46;;;;;;;6.60;3.92;;;4.30;99.90;;;;;;5050511;28;20186;-76
2022/01/08 13:04:17;;;;;;;7.53;2.77;;;4.50;99.90;;;;;;5050051;28;20263;-76
2022/01/08 13:06:43;;;;;;;5.10;2.53;;;5.10;99.90;;;;;;5032950;28;20436;-76
2022/01/08 13:09:09;;;;;;;4.67;2.53;;;5.60;99.90;;;;;;5049968;28;20937;-76
2022/01/08 13:11:38;;;;;;;7.90;3.73;;;5.60;99.90;;;;;;5050096;28;20417;-76
2022/01/08 13:14:03;;;;;;;6.93;3.40;;;5.40;99.90;;;;;;5049774;28;20465;-76
2022/01/08 13:16:44;;;;;;;8.17;3.17;;;4.90;99.90;;;;;;5031604;28;20433;-76
2022/01/08 13:19:13;;;;;;;2.97;1.23;;;4.60;99.90;;;;;;5032289;28;20236;-75
2022/01/08 13:21:41;;;;;;;1.63;1.10;;;4.50;99.90;;;;;;5032051;28;20425;-76
2022/01/08 13:24:19;;;;;;;2.25;1.40;;;4.30;99.90;;;;;;5049798;28;20740;-76
2022/01/08 13:26:57;;;;;;;7.93;3.83;;;4.20;99.90;;;;;;5049011;28;20183;-76
2022/01/08 13:29:27;;;;;;;2.93;1.77;;;4.30;99.90;;;;;;5049713;28;20471;-76
2022/01/08 13:31:58;;;;;;;4.53;1.98;;;4.30;99.90;;;;;;5049618;28;21090;-76